createdAt,value
2018-06-25T00:00:35.505Z,0.00
2018-06-25T00:01:35.505Z,0.00
2018-06-25T00:02:35.505Z,0.00
2018-06-25T00:03:35.506Z,0.00
2018-06-25T00:04:35.504Z,0.00
2018-06-25T00:05:35.509Z,0.00
2018-06-25T00:06:35.505Z,0.00
2018-06-25T00:07:35.510Z,0.00
2018-06-25T00:08:35.505Z,0.00
2018-06-25T00:09:35.506Z,0.00
2018-06-25T00:10:35.507Z,0.00
2018-06-25T00:11:35.512Z,0.00
2018-06-25T00:12:35.507Z,0.00
2018-06-25T00:13:35.512Z,0.00
2018-06-25T00:14:35.511Z,0.00
2018-06-25T00:15:35.515Z,0.00
2018-06-25T00:16:35.510Z,0.00
2018-06-25T00:17:35.511Z,0.00
2018-06-25T00:18:35.510Z,0.00
2018-06-25T00:19:35.512Z,0.00
2018-06-25T00:20:35.509Z,0.00
2018-06-25T00:21:35.506Z,0.00
2018-06-25T00:22:35.509Z,0.00
2018-06-25T00:23:35.505Z,0.00
2018-06-25T00:24:35.518Z,0.00
2018-06-25T00:25:35.519Z,0.00
2018-06-25T00:26:35.512Z,0.00
2018-06-25T00:27:35.510Z,0.00
2018-06-25T00:28:35.511Z,0.00
2018-06-25T00:29:35.502Z,0.00
2018-06-25T00:30:35.510Z,0.00
2018-06-25T00:31:35.510Z,0.00
2018-06-25T00:32:35.514Z,0.00
2018-06-25T00:33:35.511Z,0.00
2018-06-25T00:34:35.510Z,0.00
2018-06-25T00:35:35.515Z,0.00
2018-06-25T00:36:35.515Z,0.00
2018-06-25T00:37:35.512Z,0.00
2018-06-25T00:38:35.517Z,0.00
2018-06-25T00:39:35.516Z,0.00
2018-06-25T00:40:35.504Z,0.00
2018-06-25T00:41:35.510Z,0.00
2018-06-25T00:42:35.515Z,0.00
2018-06-25T00:43:35.513Z,0.00
2018-06-25T00:44:35.512Z,0.00
2018-06-25T00:45:35.511Z,0.00
2018-06-25T00:46:35.512Z,0.00
2018-06-25T00:47:35.513Z,0.00
2018-06-25T00:48:35.513Z,0.00
2018-06-25T00:49:35.514Z,0.00
2018-06-25T00:50:35.514Z,0.00
2018-06-25T00:51:35.518Z,0.00
2018-06-25T00:52:35.513Z,0.00
2018-06-25T00:53:35.513Z,0.00
2018-06-25T00:54:35.513Z,0.00
2018-06-25T00:55:35.514Z,0.00
2018-06-25T00:56:35.516Z,0.00
2018-06-25T00:57:35.515Z,0.00
2018-06-25T00:58:35.514Z,0.00
2018-06-25T00:59:35.515Z,0.00
2018-06-25T01:00:35.516Z,0.00
2018-06-25T01:01:35.515Z,0.00
2018-06-25T01:02:35.515Z,0.00
2018-06-25T01:03:35.514Z,0.00
2018-06-25T01:04:35.517Z,0.00
2018-06-25T01:05:35.516Z,0.00
2018-06-25T01:06:35.516Z,0.00
2018-06-25T01:07:35.515Z,0.00
2018-06-25T01:08:35.515Z,0.00
2018-06-25T01:09:35.523Z,0.00
2018-06-25T01:10:35.517Z,0.00
2018-06-25T01:11:35.516Z,0.00
2018-06-25T01:12:35.517Z,0.00
2018-06-25T01:13:35.515Z,0.00
2018-06-25T01:14:35.522Z,0.00
2018-06-25T01:15:35.510Z,0.00
2018-06-25T01:16:35.516Z,0.00
2018-06-25T01:17:35.515Z,0.00
2018-06-25T01:18:35.515Z,0.00
2018-06-25T01:19:35.519Z,0.00
2018-06-25T01:20:35.516Z,0.00
2018-06-25T01:21:35.516Z,0.00
2018-06-25T01:22:35.518Z,0.00
2018-06-25T01:23:35.518Z,0.00
2018-06-25T01:24:35.519Z,0.00
2018-06-25T01:25:35.517Z,0.00
2018-06-25T01:26:35.516Z,0.00
2018-06-25T01:27:35.517Z,0.00
2018-06-25T01:28:35.517Z,0.00
2018-06-25T01:29:35.519Z,0.00
2018-06-25T01:30:35.518Z,0.00
2018-06-25T01:31:35.520Z,0.00
2018-06-25T01:32:35.525Z,0.00
2018-06-25T01:33:35.516Z,0.00
2018-06-25T01:34:35.519Z,0.00
2018-06-25T01:35:35.521Z,0.00
2018-06-25T01:36:35.535Z,0.00
2018-06-25T01:37:35.511Z,0.00
2018-06-25T01:38:35.515Z,0.00
2018-06-25T01:39:35.523Z,0.00
2018-06-25T01:40:35.518Z,0.00
2018-06-25T01:41:35.525Z,0.00
2018-06-25T01:42:35.518Z,0.00
2018-06-25T01:43:35.516Z,0.00
2018-06-25T01:44:35.520Z,0.00
2018-06-25T01:45:35.521Z,0.00
2018-06-25T01:46:35.520Z,0.00
2018-06-25T01:47:35.520Z,0.00
2018-06-25T01:48:35.519Z,0.00
2018-06-25T01:49:35.521Z,0.00
2018-06-25T01:50:35.519Z,0.00
2018-06-25T01:51:35.519Z,0.00
2018-06-25T01:52:35.518Z,0.00
2018-06-25T01:53:35.520Z,0.00
2018-06-25T01:54:35.521Z,0.00
2018-06-25T01:55:35.522Z,0.00
2018-06-25T01:56:35.517Z,0.00
2018-06-25T01:57:35.523Z,0.00
2018-06-25T01:58:35.520Z,0.00
2018-06-25T01:59:35.522Z,0.00
2018-06-25T02:00:35.519Z,0.00
2018-06-25T02:01:35.522Z,0.00
2018-06-25T02:02:35.521Z,0.00
2018-06-25T02:03:35.521Z,0.00
2018-06-25T02:04:35.522Z,0.00
2018-06-25T02:05:35.520Z,0.00
2018-06-25T02:06:35.523Z,0.00
2018-06-25T02:07:35.521Z,0.00
2018-06-25T02:08:35.557Z,0.00
2018-06-25T02:09:35.522Z,0.00
2018-06-25T02:10:35.523Z,0.00
2018-06-25T02:11:35.519Z,0.00
2018-06-25T02:12:35.521Z,0.00
2018-06-25T02:13:35.520Z,0.00
2018-06-25T02:14:35.522Z,0.00
2018-06-25T02:15:35.519Z,0.00
2018-06-25T02:16:35.520Z,0.00
2018-06-25T02:17:35.524Z,0.00
2018-06-25T02:18:35.522Z,0.00
2018-06-25T02:19:35.526Z,0.00
2018-06-25T02:20:35.521Z,0.00
2018-06-25T02:21:35.524Z,0.00
2018-06-25T02:22:35.524Z,0.00
2018-06-25T02:23:35.525Z,0.00
2018-06-25T02:24:35.526Z,0.00
2018-06-25T02:25:35.522Z,0.00
2018-06-25T02:26:35.524Z,0.00
2018-06-25T02:27:35.525Z,0.00
2018-06-25T02:28:35.523Z,0.00
2018-06-25T02:29:35.522Z,0.00
2018-06-25T02:30:35.522Z,0.00
2018-06-25T02:31:35.524Z,0.00
2018-06-25T02:32:35.523Z,0.00
2018-06-25T02:33:35.523Z,0.00
2018-06-25T02:34:35.517Z,0.00
2018-06-25T02:35:35.523Z,0.00
2018-06-25T02:36:35.526Z,0.00
2018-06-25T02:37:35.524Z,0.00
2018-06-25T02:38:35.539Z,0.00
2018-06-25T02:39:35.524Z,0.00
2018-06-25T02:40:35.527Z,0.00
2018-06-25T02:41:35.530Z,0.00
2018-06-25T02:42:35.529Z,0.00
2018-06-25T02:43:35.521Z,0.00
2018-06-25T02:44:35.520Z,0.00
2018-06-25T02:45:35.528Z,0.00
2018-06-25T02:46:35.526Z,0.00
2018-06-25T02:47:35.522Z,0.00
2018-06-25T02:48:35.526Z,0.00
2018-06-25T02:49:35.524Z,0.00
2018-06-25T02:50:35.529Z,0.00
2018-06-25T02:51:35.535Z,0.00
2018-06-25T02:52:35.526Z,0.00
2018-06-25T02:53:35.533Z,0.00
2018-06-25T02:54:35.528Z,0.00
2018-06-25T02:55:35.528Z,0.00
2018-06-25T02:56:35.528Z,0.00
2018-06-25T02:57:35.529Z,0.00
2018-06-25T02:58:35.530Z,0.00
2018-06-25T02:59:35.529Z,0.00
2018-06-25T03:00:35.529Z,0.00
2018-06-25T03:01:35.523Z,0.00
2018-06-25T03:02:35.529Z,0.00
2018-06-25T03:03:35.525Z,0.00
2018-06-25T03:04:35.530Z,0.00
2018-06-25T03:05:35.551Z,5.63
2018-06-25T03:06:35.532Z,5.63
2018-06-25T03:07:35.531Z,5.63
2018-06-25T03:08:35.533Z,5.63
2018-06-25T03:09:35.532Z,5.63
2018-06-25T03:10:35.533Z,5.63
2018-06-25T03:11:35.535Z,5.63
2018-06-25T03:12:35.532Z,5.63
2018-06-25T03:13:35.536Z,5.63
2018-06-25T03:14:35.531Z,5.63
2018-06-25T03:15:35.536Z,11.25
2018-06-25T03:16:35.537Z,11.25
2018-06-25T03:17:35.533Z,11.25
2018-06-25T03:18:35.536Z,11.25
2018-06-25T03:19:35.536Z,11.25
2018-06-25T03:20:35.535Z,11.25
2018-06-25T03:21:35.536Z,11.25
2018-06-25T03:22:35.536Z,16.88
2018-06-25T03:23:35.536Z,16.88
2018-06-25T03:24:35.535Z,16.88
2018-06-25T03:25:35.536Z,16.88
2018-06-25T03:26:35.536Z,16.88
2018-06-25T03:27:35.538Z,16.88
2018-06-25T03:28:35.536Z,16.88
2018-06-25T03:29:35.536Z,22.50
2018-06-25T03:30:35.538Z,22.50
2018-06-25T03:31:35.540Z,22.50
2018-06-25T03:32:35.536Z,22.50
2018-06-25T03:33:35.537Z,22.50
2018-06-25T03:34:35.539Z,33.75
2018-06-25T03:35:35.535Z,39.38
2018-06-25T03:36:35.536Z,39.38
2018-06-25T03:37:35.538Z,39.38
2018-06-25T03:38:35.537Z,45.00
2018-06-25T03:39:35.536Z,45.00
2018-06-25T03:40:35.534Z,56.25
2018-06-25T03:41:35.536Z,56.25
2018-06-25T03:42:35.536Z,50.63
2018-06-25T03:43:35.537Z,45.00
2018-06-25T03:44:35.531Z,39.38
2018-06-25T03:45:35.536Z,39.38
2018-06-25T03:46:35.534Z,39.38
2018-06-25T03:47:35.532Z,39.38
2018-06-25T03:48:35.536Z,39.38
2018-06-25T03:49:35.538Z,33.75
2018-06-25T03:50:35.538Z,33.75
2018-06-25T03:51:35.537Z,33.75
2018-06-25T03:52:35.537Z,33.75
2018-06-25T03:53:35.530Z,33.75
2018-06-25T03:54:35.536Z,33.75
2018-06-25T03:55:35.537Z,39.38
2018-06-25T03:56:35.537Z,50.63
2018-06-25T03:57:35.531Z,73.13
2018-06-25T03:58:35.538Z,101.25
2018-06-25T03:59:35.536Z,106.88
2018-06-25T04:00:35.539Z,106.88
2018-06-25T04:01:35.536Z,106.88
2018-06-25T04:02:35.539Z,129.38
2018-06-25T04:03:35.540Z,123.75
2018-06-25T04:04:35.540Z,118.13
2018-06-25T04:05:35.536Z,118.13
2018-06-25T04:06:35.536Z,140.63
2018-06-25T04:07:35.535Z,146.25
2018-06-25T04:08:35.537Z,157.50
2018-06-25T04:09:35.537Z,151.88
2018-06-25T04:10:35.537Z,146.25
2018-06-25T04:11:35.531Z,140.63
2018-06-25T04:12:35.537Z,135.00
2018-06-25T04:13:35.537Z,129.38
2018-06-25T04:14:35.531Z,123.75
2018-06-25T04:15:35.538Z,118.13
2018-06-25T04:16:35.537Z,118.13
2018-06-25T04:17:35.536Z,118.13
2018-06-25T04:18:35.536Z,118.13
2018-06-25T04:19:35.533Z,123.75
2018-06-25T04:20:35.594Z,123.75
2018-06-25T04:21:35.539Z,123.75
2018-06-25T04:22:35.536Z,135.00
2018-06-25T04:23:35.539Z,140.63
2018-06-25T04:24:35.540Z,146.25
2018-06-25T04:25:35.541Z,157.50
2018-06-25T04:26:35.544Z,163.13
2018-06-25T04:27:35.541Z,168.75
2018-06-25T04:28:35.540Z,180.00
2018-06-25T04:29:35.542Z,185.63
2018-06-25T04:30:35.552Z,185.63
2018-06-25T04:31:35.544Z,191.25
2018-06-25T04:32:35.544Z,196.88
2018-06-25T04:33:35.544Z,202.50
2018-06-25T04:34:35.546Z,191.25
2018-06-25T04:35:35.545Z,174.38
2018-06-25T04:36:35.539Z,157.50
2018-06-25T04:37:35.549Z,168.75
2018-06-25T04:38:35.548Z,163.13
2018-06-25T04:39:35.545Z,146.25
2018-06-25T04:40:35.548Z,157.50
2018-06-25T04:41:35.548Z,157.50
2018-06-25T04:42:35.550Z,157.50
2018-06-25T04:43:35.548Z,157.50
2018-06-25T04:44:35.543Z,163.13
2018-06-25T04:45:35.550Z,174.38
2018-06-25T04:46:35.550Z,185.63
2018-06-25T04:47:35.550Z,180.00
2018-06-25T04:48:35.555Z,180.00
2018-06-25T04:49:35.552Z,168.75
2018-06-25T04:50:35.649Z,151.88
2018-06-25T04:51:35.554Z,140.63
2018-06-25T04:52:35.554Z,163.13
2018-06-25T04:53:35.554Z,185.63
2018-06-25T04:54:35.557Z,202.50
2018-06-25T04:55:35.558Z,208.13
2018-06-25T04:56:35.551Z,213.75
2018-06-25T04:57:35.557Z,230.63
2018-06-25T04:58:35.566Z,230.63
2018-06-25T04:59:35.559Z,241.88
2018-06-25T05:00:35.561Z,258.75
2018-06-25T05:01:35.564Z,270.00
2018-06-25T05:02:35.557Z,275.63
2018-06-25T05:03:35.565Z,258.75
2018-06-25T05:04:35.565Z,264.38
2018-06-25T05:05:35.560Z,281.25
2018-06-25T05:06:35.568Z,253.13
2018-06-25T05:07:35.566Z,225.00
2018-06-25T05:08:35.572Z,213.75
2018-06-25T05:09:35.570Z,196.88
2018-06-25T05:10:35.572Z,185.63
2018-06-25T05:11:35.567Z,191.25
2018-06-25T05:12:35.569Z,213.75
2018-06-25T05:13:35.574Z,236.25
2018-06-25T05:14:35.576Z,219.38
2018-06-25T05:15:35.578Z,219.38
2018-06-25T05:16:35.577Z,225.00
2018-06-25T05:17:35.582Z,236.25
2018-06-25T05:18:35.580Z,241.88
2018-06-25T05:19:35.583Z,247.50
2018-06-25T05:20:35.581Z,247.50
2018-06-25T05:21:35.586Z,253.13
2018-06-25T05:22:35.584Z,241.88
2018-06-25T05:23:35.611Z,236.25
2018-06-25T05:24:35.584Z,236.25
2018-06-25T05:25:35.586Z,225.00
2018-06-25T05:26:35.589Z,202.50
2018-06-25T05:27:35.595Z,180.00
2018-06-25T05:28:35.589Z,163.13
2018-06-25T05:29:35.589Z,157.50
2018-06-25T05:30:35.591Z,157.50
2018-06-25T05:31:35.592Z,163.13
2018-06-25T05:32:35.600Z,151.88
2018-06-25T05:33:35.595Z,146.25
2018-06-25T05:34:35.596Z,168.75
2018-06-25T05:35:35.598Z,174.38
2018-06-25T05:36:35.598Z,213.75
2018-06-25T05:37:35.601Z,225.00
2018-06-25T05:38:35.601Z,225.00
2018-06-25T05:39:35.621Z,208.13
2018-06-25T05:40:35.604Z,225.00
2018-06-25T05:41:35.605Z,225.00
2018-06-25T05:42:35.605Z,236.25
2018-06-25T05:43:35.608Z,292.50
2018-06-25T05:44:35.610Z,303.75
2018-06-25T05:45:35.626Z,348.75
2018-06-25T05:46:35.611Z,376.88
2018-06-25T05:47:35.613Z,376.88
2018-06-25T05:48:35.606Z,354.38
2018-06-25T05:49:35.614Z,405.00
2018-06-25T05:50:35.618Z,410.63
2018-06-25T05:51:35.616Z,388.13
2018-06-25T05:52:35.615Z,360.00
2018-06-25T05:53:35.619Z,326.25
2018-06-25T05:54:35.620Z,303.75
2018-06-25T05:55:35.618Z,298.13
2018-06-25T05:56:35.621Z,326.25
2018-06-25T05:57:35.624Z,365.63
2018-06-25T05:58:35.634Z,365.63
2018-06-25T05:59:35.627Z,337.50
2018-06-25T06:00:35.627Z,298.13
2018-06-25T06:01:35.629Z,286.88
2018-06-25T06:02:35.624Z,270.00
2018-06-25T06:03:35.633Z,258.75
2018-06-25T06:04:35.633Z,298.13
2018-06-25T06:05:35.640Z,320.63
2018-06-25T06:06:35.636Z,405.00
2018-06-25T06:07:35.638Z,489.38
2018-06-25T06:08:35.638Z,551.25
2018-06-25T06:09:35.640Z,585.00
2018-06-25T06:10:35.643Z,601.88
2018-06-25T06:11:35.650Z,624.38
2018-06-25T06:12:35.644Z,641.25
2018-06-25T06:13:35.646Z,646.88
2018-06-25T06:14:35.651Z,641.25
2018-06-25T06:15:35.651Z,624.38
2018-06-25T06:16:35.651Z,590.63
2018-06-25T06:17:35.655Z,590.63
2018-06-25T06:18:35.656Z,607.50
2018-06-25T06:19:35.652Z,607.50
2018-06-25T06:20:35.654Z,635.63
2018-06-25T06:21:35.662Z,630.00
2018-06-25T06:22:35.664Z,680.63
2018-06-25T06:23:35.666Z,663.75
2018-06-25T06:24:35.669Z,630.00
2018-06-25T06:25:35.666Z,579.38
2018-06-25T06:26:35.672Z,607.50
2018-06-25T06:27:35.679Z,607.50
2018-06-25T06:28:35.678Z,607.50
2018-06-25T06:29:35.679Z,680.63
2018-06-25T06:30:35.681Z,776.25
2018-06-25T06:31:35.680Z,759.38
2018-06-25T06:32:35.686Z,776.25
2018-06-25T06:33:35.692Z,736.88
2018-06-25T06:34:35.692Z,686.25
2018-06-25T06:35:35.695Z,736.88
2018-06-25T06:36:35.698Z,804.38
2018-06-25T06:37:35.700Z,781.88
2018-06-25T06:38:35.700Z,725.63
2018-06-25T06:39:35.705Z,680.63
2018-06-25T06:40:35.707Z,720.00
2018-06-25T06:41:35.709Z,770.63
2018-06-25T06:42:35.714Z,691.88
2018-06-25T06:43:35.714Z,663.75
2018-06-25T06:44:35.713Z,669.38
2018-06-25T06:45:35.714Z,585.00
2018-06-25T06:46:35.717Z,495.00
2018-06-25T06:47:35.725Z,405.00
2018-06-25T06:48:35.726Z,399.38
2018-06-25T06:49:35.730Z,393.75
2018-06-25T06:50:35.730Z,421.88
2018-06-25T06:51:35.736Z,393.75
2018-06-25T06:52:35.741Z,382.50
2018-06-25T06:53:35.741Z,309.38
2018-06-25T06:54:35.747Z,281.25
2018-06-25T06:55:35.747Z,292.50
2018-06-25T06:56:35.745Z,388.13
2018-06-25T06:57:35.783Z,478.13
2018-06-25T06:58:35.749Z,466.88
2018-06-25T06:59:35.752Z,489.38
2018-06-25T07:00:35.758Z,551.25
2018-06-25T07:01:35.759Z,585.00
2018-06-25T07:02:35.763Z,646.88
2018-06-25T07:03:35.767Z,669.38
2018-06-25T07:04:35.773Z,646.88
2018-06-25T07:05:35.767Z,680.63
2018-06-25T07:06:35.771Z,613.13
2018-06-25T07:07:35.773Z,613.13
2018-06-25T07:08:35.776Z,686.25
2018-06-25T07:09:35.779Z,613.13
2018-06-25T07:10:35.780Z,551.25
2018-06-25T07:11:35.783Z,585.00
2018-06-25T07:12:35.786Z,534.38
2018-06-25T07:13:35.787Z,506.25
2018-06-25T07:14:35.792Z,455.63
2018-06-25T07:15:35.792Z,427.50
2018-06-25T07:16:35.796Z,421.88
2018-06-25T07:17:35.803Z,438.75
2018-06-25T07:18:35.802Z,455.63
2018-06-25T07:19:35.804Z,517.50
2018-06-25T07:20:35.808Z,534.38
2018-06-25T07:21:35.807Z,551.25
2018-06-25T07:22:35.808Z,585.00
2018-06-25T07:23:35.806Z,641.25
2018-06-25T07:24:35.810Z,641.25
2018-06-25T07:25:35.816Z,624.38
2018-06-25T07:26:35.822Z,635.63
2018-06-25T07:27:35.815Z,635.63
2018-06-25T07:28:35.822Z,635.63
2018-06-25T07:29:35.825Z,646.88
2018-06-25T07:30:35.827Z,663.75
2018-06-25T07:31:35.830Z,680.63
2018-06-25T07:32:35.830Z,691.88
2018-06-25T07:33:35.832Z,691.88
2018-06-25T07:34:35.840Z,731.25
2018-06-25T07:35:35.838Z,742.50
2018-06-25T07:36:35.840Z,742.50
2018-06-25T07:37:35.846Z,731.25
2018-06-25T07:38:35.851Z,731.25
2018-06-25T07:39:35.841Z,703.13
2018-06-25T07:40:35.848Z,663.75
2018-06-25T07:41:35.876Z,590.63
2018-06-25T07:42:35.854Z,540.00
2018-06-25T07:43:35.858Z,523.13
2018-06-25T07:44:35.860Z,545.63
2018-06-25T07:45:35.862Z,630.00
2018-06-25T07:46:35.864Z,675.00
2018-06-25T07:47:35.870Z,652.50
2018-06-25T07:48:35.869Z,641.25
2018-06-25T07:49:35.871Z,590.63
2018-06-25T07:50:35.877Z,545.63
2018-06-25T07:51:35.872Z,528.75
2018-06-25T07:52:35.880Z,483.75
2018-06-25T07:53:35.932Z,433.13
2018-06-25T07:54:35.887Z,427.50
2018-06-25T07:55:35.889Z,399.38
2018-06-25T07:56:35.892Z,360.00
2018-06-25T07:57:35.893Z,343.13
2018-06-25T07:58:35.892Z,388.13
2018-06-25T07:59:35.898Z,466.88
2018-06-25T08:00:35.899Z,534.38
2018-06-25T08:01:35.906Z,545.63
2018-06-25T08:02:35.906Z,545.63
2018-06-25T08:03:35.953Z,551.25
2018-06-25T08:04:35.912Z,545.63
2018-06-25T08:05:35.918Z,540.00
2018-06-25T08:06:35.917Z,517.50
2018-06-25T08:07:35.926Z,511.88
2018-06-25T08:08:35.917Z,534.38
2018-06-25T08:09:35.928Z,590.63
2018-06-25T08:10:35.926Z,630.00
2018-06-25T08:11:35.928Z,624.38
2018-06-25T08:12:35.928Z,511.88
2018-06-25T08:13:35.931Z,421.88
2018-06-25T08:14:35.935Z,472.50
2018-06-25T08:15:35.939Z,551.25
2018-06-25T08:16:35.948Z,624.38
2018-06-25T08:17:35.943Z,691.88
2018-06-25T08:18:35.946Z,748.13
2018-06-25T08:19:35.947Z,776.25
2018-06-25T08:20:35.949Z,815.63
2018-06-25T08:21:35.954Z,849.38
2018-06-25T08:22:35.953Z,866.25
2018-06-25T08:23:35.957Z,883.13
2018-06-25T08:24:35.961Z,894.38
2018-06-25T08:25:35.962Z,883.13
2018-06-25T08:26:35.959Z,871.88
2018-06-25T08:27:35.967Z,855.00
2018-06-25T08:28:35.971Z,838.13
2018-06-25T08:29:35.971Z,877.50
2018-06-25T08:30:35.980Z,894.38
2018-06-25T08:31:35.974Z,905.63
2018-06-25T08:32:35.980Z,945.00
2018-06-25T08:33:35.985Z,995.63
2018-06-25T08:34:35.987Z,1018.13
2018-06-25T08:35:35.993Z,1012.50
2018-06-25T08:36:35.993Z,1012.50
2018-06-25T08:37:35.996Z,967.50
2018-06-25T08:38:36.000Z,916.88
2018-06-25T08:39:36.003Z,888.75
2018-06-25T08:40:36.005Z,849.38
2018-06-25T08:41:36.011Z,866.25
2018-06-25T08:42:36.015Z,877.50
2018-06-25T08:43:36.018Z,939.38
2018-06-25T08:44:36.021Z,967.50
2018-06-25T08:45:36.024Z,1001.25
2018-06-25T08:46:36.026Z,1040.63
2018-06-25T08:47:36.031Z,1063.13
2018-06-25T08:48:36.036Z,1074.38
2018-06-25T08:49:36.042Z,1074.38
2018-06-25T08:50:36.041Z,1068.75
2018-06-25T08:51:36.104Z,1074.38
2018-06-25T08:52:36.049Z,1074.38
2018-06-25T08:53:36.055Z,1091.25
2018-06-25T08:54:36.058Z,1080.00
2018-06-25T08:55:36.062Z,1080.00
2018-06-25T08:56:36.067Z,1085.63
2018-06-25T08:57:36.072Z,1102.50
2018-06-25T08:58:36.072Z,1119.38
2018-06-25T08:59:36.075Z,1141.88
2018-06-25T09:00:36.086Z,1141.88
2018-06-25T09:01:36.088Z,1147.50
2018-06-25T09:02:36.093Z,1164.38
2018-06-25T09:03:36.101Z,1130.63
2018-06-25T09:04:36.104Z,1102.50
2018-06-25T09:05:36.108Z,1096.88
2018-06-25T09:06:36.113Z,1068.75
2018-06-25T09:07:36.120Z,1080.00
2018-06-25T09:08:36.123Z,1091.25
2018-06-25T09:09:36.189Z,1102.50
2018-06-25T09:10:36.133Z,1057.50
2018-06-25T09:11:36.136Z,1074.38
2018-06-25T09:12:36.143Z,1040.63
2018-06-25T09:13:36.149Z,1029.38
2018-06-25T09:14:36.155Z,1113.75
2018-06-25T09:15:36.227Z,1198.13
2018-06-25T09:16:36.163Z,1226.25
2018-06-25T09:17:36.170Z,1136.25
2018-06-25T09:18:36.175Z,1029.38
2018-06-25T09:19:36.174Z,1001.25
2018-06-25T09:20:36.187Z,1119.38
2018-06-25T09:21:36.189Z,1141.88
2018-06-25T09:22:36.197Z,1091.25
2018-06-25T09:23:36.203Z,1091.25
2018-06-25T09:24:36.206Z,1074.38
2018-06-25T09:25:36.213Z,1051.88
2018-06-25T09:26:36.217Z,928.13
2018-06-25T09:27:36.250Z,849.38
2018-06-25T09:28:36.226Z,821.25
2018-06-25T09:29:36.234Z,798.75
2018-06-25T09:30:36.233Z,832.50
2018-06-25T09:31:36.242Z,877.50
2018-06-25T09:32:36.245Z,894.38
2018-06-25T09:33:36.254Z,922.50
2018-06-25T09:34:36.269Z,1012.50
2018-06-25T09:35:36.266Z,1074.38
2018-06-25T09:36:36.272Z,1091.25
2018-06-25T09:37:36.279Z,1113.75
2018-06-25T09:38:36.285Z,1164.38
2018-06-25T09:39:36.281Z,1203.75
2018-06-25T09:40:36.287Z,1136.25
2018-06-25T09:41:36.430Z,1080.00
2018-06-25T09:42:36.301Z,1091.25
2018-06-25T09:43:36.312Z,1130.63
2018-06-25T09:44:36.313Z,1192.50
2018-06-25T09:45:36.316Z,1186.88
2018-06-25T09:46:36.324Z,1119.38
2018-06-25T09:47:36.333Z,1051.88
2018-06-25T09:48:36.331Z,1018.13
2018-06-25T09:49:36.340Z,995.63
2018-06-25T09:50:36.346Z,916.88
2018-06-25T09:51:36.351Z,883.13
2018-06-25T09:52:36.357Z,838.13
2018-06-25T09:53:36.359Z,720.00
2018-06-25T09:54:36.369Z,691.88
2018-06-25T09:55:36.367Z,708.75
2018-06-25T09:56:36.378Z,731.25
2018-06-25T09:57:36.383Z,770.63
2018-06-25T09:58:36.390Z,838.13
2018-06-25T09:59:36.396Z,900.00
2018-06-25T10:00:36.402Z,939.38
2018-06-25T10:01:36.406Z,883.13
2018-06-25T10:02:36.416Z,821.25
2018-06-25T10:03:36.444Z,748.13
2018-06-25T10:04:36.419Z,703.13
2018-06-25T10:05:36.426Z,675.00
2018-06-25T10:06:36.432Z,646.88
2018-06-25T10:07:36.429Z,686.25
2018-06-25T10:08:36.443Z,759.38
2018-06-25T10:09:36.447Z,826.88
2018-06-25T10:10:36.471Z,871.88
2018-06-25T10:11:36.457Z,950.63
2018-06-25T10:12:36.458Z,1029.38
2018-06-25T10:13:36.464Z,1113.75
2018-06-25T10:14:36.475Z,1175.63
2018-06-25T10:15:36.474Z,1198.13
2018-06-25T10:16:36.478Z,1209.38
2018-06-25T10:17:36.485Z,1203.75
2018-06-25T10:18:36.488Z,1192.50
2018-06-25T10:19:36.496Z,1175.63
2018-06-25T10:20:36.500Z,1153.13
2018-06-25T10:21:36.504Z,1164.38
2018-06-25T10:22:36.503Z,1153.13
2018-06-25T10:23:36.514Z,1147.50
2018-06-25T10:24:36.520Z,1215.00
2018-06-25T10:25:36.523Z,1237.50
2018-06-25T10:26:36.529Z,1254.38
2018-06-25T10:27:36.536Z,1237.50
2018-06-25T10:28:36.541Z,1226.25
2018-06-25T10:29:36.544Z,1203.75
2018-06-25T10:30:36.551Z,1192.50
2018-06-25T10:31:36.556Z,1170.00
2018-06-25T10:32:36.562Z,1153.13
2018-06-25T10:33:36.569Z,1136.25
2018-06-25T10:34:36.567Z,1119.38
2018-06-25T10:35:36.577Z,1113.75
2018-06-25T10:36:36.585Z,1125.00
2018-06-25T10:37:36.588Z,1136.25
2018-06-25T10:38:36.597Z,1147.50
2018-06-25T10:39:36.601Z,1119.38
2018-06-25T10:40:36.608Z,1074.38
2018-06-25T10:41:36.612Z,1035.00
2018-06-25T10:42:36.737Z,1029.38
2018-06-25T10:43:36.628Z,1023.75
2018-06-25T10:44:36.630Z,1012.50
2018-06-25T10:45:36.638Z,1012.50
2018-06-25T10:46:36.643Z,984.38
2018-06-25T10:47:36.648Z,984.38
2018-06-25T10:48:36.648Z,973.13
2018-06-25T10:49:36.661Z,973.13
2018-06-25T10:50:36.666Z,956.25
2018-06-25T10:51:36.675Z,950.63
2018-06-25T10:52:36.678Z,945.00
2018-06-25T10:53:36.683Z,945.00
2018-06-25T10:54:36.690Z,956.25
2018-06-25T10:55:36.698Z,1006.88
2018-06-25T10:56:36.700Z,1085.63
2018-06-25T10:57:36.705Z,1136.25
2018-06-25T10:58:36.712Z,1102.50
2018-06-25T10:59:36.770Z,1068.75
2018-06-25T11:00:36.723Z,1091.25
2018-06-25T11:01:36.730Z,1113.75
2018-06-25T11:02:36.738Z,1136.25
2018-06-25T11:03:36.741Z,1158.75
2018-06-25T11:04:36.742Z,1080.00
2018-06-25T11:05:36.753Z,1040.63
2018-06-25T11:06:36.766Z,1012.50
2018-06-25T11:07:36.812Z,1001.25
2018-06-25T11:08:36.770Z,1023.75
2018-06-25T11:09:36.779Z,1057.50
2018-06-25T11:10:36.784Z,1063.13
2018-06-25T11:11:36.791Z,1040.63
2018-06-25T11:12:36.797Z,995.63
2018-06-25T11:13:36.920Z,978.75
2018-06-25T11:14:36.806Z,973.13
2018-06-25T11:15:36.811Z,1023.75
2018-06-25T11:16:36.820Z,1068.75
2018-06-25T11:17:36.826Z,1096.88
2018-06-25T11:18:36.837Z,1051.88
2018-06-25T11:19:36.839Z,1040.63
2018-06-25T11:20:36.846Z,1012.50
2018-06-25T11:21:36.851Z,1001.25
2018-06-25T11:22:36.854Z,990.00
2018-06-25T11:23:36.863Z,978.75
2018-06-25T11:24:36.868Z,990.00
2018-06-25T11:25:36.877Z,1023.75
2018-06-25T11:26:36.889Z,1023.75
2018-06-25T11:27:36.924Z,1046.25
2018-06-25T11:28:36.895Z,1080.00
2018-06-25T11:29:36.895Z,1068.75
2018-06-25T11:30:36.907Z,1119.38
2018-06-25T11:31:36.912Z,1175.63
2018-06-25T11:32:36.918Z,1203.75
2018-06-25T11:33:36.923Z,1209.38
2018-06-25T11:34:36.989Z,1198.13
2018-06-25T11:35:36.936Z,1215.00
2018-06-25T11:36:36.943Z,1226.25
2018-06-25T11:37:36.948Z,1260.00
2018-06-25T11:38:36.957Z,1260.00
2018-06-25T11:39:36.962Z,1288.13
2018-06-25T11:40:36.969Z,1282.50
2018-06-25T11:41:36.973Z,1192.50
2018-06-25T11:42:36.980Z,1153.13
2018-06-25T11:43:36.990Z,1108.13
2018-06-25T11:44:36.993Z,1158.75
2018-06-25T11:45:37.001Z,1108.13
2018-06-25T11:46:37.005Z,1102.50
2018-06-25T11:47:37.015Z,1085.63
2018-06-25T11:48:37.016Z,1035.00
2018-06-25T11:49:37.031Z,1018.13
2018-06-25T11:50:37.032Z,984.38
2018-06-25T11:51:37.095Z,984.38
2018-06-25T11:52:37.045Z,973.13
2018-06-25T11:53:37.048Z,967.50
2018-06-25T11:54:37.059Z,916.88
2018-06-25T11:55:37.065Z,826.88
2018-06-25T11:56:37.072Z,815.63
2018-06-25T11:57:37.078Z,781.88
2018-06-25T11:58:37.086Z,742.50
2018-06-25T11:59:37.095Z,669.38
2018-06-25T12:00:37.096Z,630.00
2018-06-25T12:01:37.128Z,607.50
2018-06-25T12:02:37.263Z,618.75
2018-06-25T12:03:37.120Z,618.75
2018-06-25T12:04:37.124Z,624.38
2018-06-25T12:05:37.132Z,630.00
2018-06-25T12:06:37.157Z,630.00
2018-06-25T12:07:37.146Z,630.00
2018-06-25T12:08:37.149Z,630.00
2018-06-25T12:09:37.154Z,624.38
2018-06-25T12:10:37.164Z,624.38
2018-06-25T12:11:37.177Z,635.63
2018-06-25T12:12:37.174Z,646.88
2018-06-25T12:13:37.188Z,646.88
2018-06-25T12:14:37.189Z,646.88
2018-06-25T12:15:37.196Z,646.88
2018-06-25T12:16:37.199Z,658.13
2018-06-25T12:17:37.242Z,675.00
2018-06-25T12:18:37.212Z,686.25
2018-06-25T12:19:37.217Z,708.75
2018-06-25T12:20:37.227Z,720.00
2018-06-25T12:21:37.225Z,759.38
2018-06-25T12:22:37.237Z,810.00
2018-06-25T12:23:37.241Z,866.25
2018-06-25T12:24:37.246Z,916.88
2018-06-25T12:25:37.251Z,978.75
2018-06-25T12:26:37.258Z,1029.38
2018-06-25T12:27:37.327Z,1091.25
2018-06-25T12:28:37.271Z,1158.75
2018-06-25T12:29:37.276Z,1164.38
2018-06-25T12:30:37.284Z,1170.00
2018-06-25T12:31:37.289Z,1181.25
2018-06-25T12:32:37.293Z,1141.88
2018-06-25T12:33:37.300Z,1023.75
2018-06-25T12:34:37.309Z,961.88
2018-06-25T12:35:37.313Z,916.88
2018-06-25T12:36:37.319Z,860.63
2018-06-25T12:37:37.378Z,866.25